This is the latest recevied weather packets stored in our database for station/object EA3ANS-1. If no packets are shown the sender has not sent any weather packets the latest 1 day(s).
| Time | Temp. | Humidity | Pressure | Rain* | Wind** | Luminosity | Snow |
|---|---|---|---|---|---|---|---|
| 1778043171 | 9.44° C | - | 1011.8 hPa | 0 mm | 1.79 m/s, 326° | - | - |
| 1778041974 | 9.44° C | - | 1011.9 hPa | 0 mm | 2.24 m/s, 359° | - | - |
| 1778040765 | 9.44° C | - | 1011.6 hPa | 0 mm | 0.89 m/s, 314° | - | - |
| 1778040162 | 9.44° C | - | 1011.5 hPa | 0 mm | 0 m/s | - | - |
| 1778038964 | 10° C | - | 1011.5 hPa | 0 mm | 2.24 m/s, 325° | - | - |
| 1778038367 | 10° C | - | 1011.4 hPa | 0 mm | 2.24 m/s, 314° | - | - |
| 1778037769 | 10° C | - | 1011.3 hPa | 0 mm | 1.79 m/s, 329° | - | - |
| 1778037162 | 10° C | - | 1011.3 hPa | 0 mm | 3.13 m/s, 338° | - | - |
| 1778035962 | 10° C | - | 1011.3 hPa | 0 mm | 1.34 m/s, 309° | - | - |
| 1778035362 | 10.56° C | - | 1011.2 hPa | 0 mm | 1.79 m/s, 332° | - | - |
| 1778034762 | 10.56° C | - | 1011.2 hPa | 0 mm | 0 m/s | - | - |
| 1778034165 | 10.56° C | - | 1011.1 hPa | 0 mm | 1.34 m/s, 245° | - | - |
| 1778032363 | 10.56° C | - | 1010.9 hPa | 0 mm | 0 m/s | - | - |
| 1778031766 | 10.56° C | - | 1010.9 hPa | 0 mm | 0 m/s | - | - |
| 1778031163 | 10.56° C | - | 1010.8 hPa | 0 mm | 0 m/s | - | - |
| 1778029967 | 11.11° C | - | 1010.9 hPa | 0 mm | 0 m/s | - | - |
| 1778029367 | 11.11° C | - | 1010.9 hPa | 0 mm | 0 m/s | - | - |
| 1778028764 | 11.11° C | - | 1011 hPa | 0 mm | 0 m/s | - | - |
| 1778028167 | 11.67° C | - | 1011.1 hPa | 0 mm | 1.79 m/s, 321° | - | - |
| 1778027562 | 11.11° C | - | 1011.2 hPa | 0 mm | 0.89 m/s, 335° | - | - |
| 1778026965 | 11.67° C | - | 1011.2 hPa | 0 mm | 1.34 m/s, 3° | - | - |
| 1778026362 | 11.67° C | - | 1011.2 hPa | 0 mm | 2.68 m/s, 332° | - | - |
| 1778025165 | 11.67° C | - | 1011.2 hPa | 0 mm | 0.45 m/s, 8° | - | - |
* Rain latest hour (hover to see other rain measurements)
** Current wind speed in m/s (hover to see current wind gust speed)